createdAt,value
2023-02-12T00:01:15.704Z,102592.00
2023-02-12T00:03:43.301Z,102592.78
2023-02-12T00:06:13.566Z,102595.28
2023-02-12T00:08:42.997Z,102590.97
2023-02-12T00:11:18.733Z,102587.81
2023-02-12T00:13:46.443Z,102586.19
2023-02-12T00:16:17.290Z,102587.28
2023-02-12T00:18:45.198Z,102585.84
2023-02-12T00:21:14.051Z,102577.53
2023-02-12T00:23:41.695Z,102589.50
2023-02-12T00:26:11.994Z,102580.44
2023-02-12T00:28:44.289Z,102586.59
2023-02-12T00:31:21.501Z,102578.03
2023-02-12T00:33:49.124Z,102580.50
2023-02-12T00:36:21.906Z,102592.13
2023-02-12T00:38:51.418Z,102591.19
2023-02-12T00:41:19.283Z,102583.13
2023-02-12T00:43:47.352Z,102585.25
2023-02-12T00:46:15.301Z,102583.25
2023-02-12T00:48:44.419Z,102581.75
2023-02-12T00:51:11.799Z,102582.84
2023-02-12T00:53:39.245Z,102582.06
2023-02-12T00:56:08.420Z,102587.66
2023-02-12T00:58:35.773Z,102580.47
2023-02-12T01:01:03.487Z,102585.44
2023-02-12T01:03:30.798Z,102601.78
2023-02-12T01:05:59.982Z,102591.84
2023-02-12T01:08:27.525Z,102591.38
2023-02-12T01:11:03.804Z,102588.88
2023-02-12T01:13:32.370Z,102588.06
2023-02-12T01:16:09.008Z,102585.78
2023-02-12T01:18:38.018Z,102589.63
2023-02-12T01:21:15.651Z,102580.88
2023-02-12T01:23:44.264Z,102584.38
2023-02-12T01:26:12.596Z,102580.47
2023-02-12T01:28:42.261Z,102582.09
2023-02-12T01:31:16.086Z,102574.69
2023-02-12T01:33:44.077Z,102570.69
2023-02-12T01:36:11.524Z,102558.94
2023-02-12T01:38:38.843Z,102563.63
2023-02-12T01:41:27.688Z,102561.16
2023-02-12T01:44:08.528Z,102555.78
2023-02-12T01:46:36.386Z,102544.34
2023-02-12T01:49:07.670Z,102542.53
2023-02-12T01:51:38.114Z,102550.56
2023-02-12T01:54:08.320Z,102546.88
2023-02-12T01:56:36.192Z,102560.13
2023-02-12T01:59:03.918Z,102540.50
2023-02-12T02:01:33.678Z,102528.47
2023-02-12T02:04:05.301Z,102535.13
2023-02-12T02:06:36.076Z,102534.25
2023-02-12T02:09:06.185Z,102547.25
2023-02-12T02:11:52.032Z,102552.47
2023-02-12T02:14:34.580Z,102548.25
2023-02-12T02:17:31.796Z,102535.72
2023-02-12T02:20:20.956Z,102537.34
2023-02-12T02:23:20.213Z,102535.38
2023-02-12T02:25:56.697Z,102540.34
2023-02-12T02:28:42.630Z,102529.44
2023-02-12T02:31:24.214Z,102516.19
2023-02-12T02:33:57.072Z,102505.25
2023-02-12T02:36:59.719Z,102509.13
2023-02-12T02:39:58.379Z,102510.16
2023-02-12T02:42:37.303Z,102507.94
2023-02-12T02:45:31.501Z,102506.00
2023-02-12T02:48:32.353Z,102494.22
2023-02-12T02:51:10.478Z,102496.72
2023-02-12T02:54:01.621Z,102495.66
2023-02-12T02:56:30.646Z,102493.34
2023-02-12T02:59:11.916Z,102491.72
2023-02-12T03:01:59.159Z,102490.31
2023-02-12T03:04:35.444Z,102491.38
2023-02-12T03:07:19.358Z,102483.31
2023-02-12T03:09:56.741Z,102484.78
2023-02-12T03:12:32.762Z,102488.53
2023-02-12T03:15:31.651Z,102487.28
2023-02-12T03:18:01.407Z,102483.31
2023-02-12T03:20:36.188Z,102492.19
2023-02-12T03:23:10.232Z,102480.81
2023-02-12T03:25:49.904Z,102482.28
2023-02-12T03:28:29.184Z,102474.63
2023-02-12T03:31:01.231Z,102462.91
2023-02-12T03:33:45.786Z,102467.44
2023-02-12T03:36:55.218Z,102475.91
2023-02-12T03:39:44.448Z,102479.44
2023-02-12T03:42:25.554Z,102472.41
2023-02-12T03:44:54.555Z,102457.94
2023-02-12T03:47:36.551Z,102455.00
2023-02-12T03:50:10.681Z,102467.22
2023-02-12T03:52:38.220Z,102478.84
2023-02-12T03:55:06.330Z,102480.00
2023-02-12T03:57:40.814Z,102490.19
2023-02-12T04:00:18.728Z,102497.34
2023-02-12T04:02:48.817Z,102500.22
2023-02-12T04:05:19.173Z,102503.13
2023-02-12T04:07:46.969Z,102503.16
2023-02-12T04:10:14.961Z,102507.09
2023-02-12T04:13:04.261Z,102500.78
2023-02-12T04:15:40.855Z,102496.94
2023-02-12T04:18:25.021Z,102505.84
2023-02-12T04:21:02.307Z,102502.72
2023-02-12T04:23:47.333Z,102497.97
2023-02-12T04:26:22.234Z,102492.78
2023-02-12T04:29:11.831Z,102488.25
2023-02-12T04:32:06.525Z,102495.88
2023-02-12T04:34:50.637Z,102495.88
2023-02-12T04:37:35.573Z,102504.13
2023-02-12T04:40:09.935Z,102501.28
2023-02-12T04:42:48.982Z,102493.88
2023-02-12T04:45:22.639Z,102492.44
2023-02-12T04:47:50.005Z,102493.44
2023-02-12T04:50:17.769Z,102501.66
2023-02-12T04:52:45.445Z,102498.38
2023-02-12T04:55:13.163Z,102492.56
2023-02-12T04:57:40.510Z,102499.38
2023-02-12T05:00:12.916Z,102488.47
2023-02-12T05:02:40.602Z,102483.69
2023-02-12T05:05:08.506Z,102495.88
2023-02-12T05:07:35.990Z,102484.69
2023-02-12T05:10:03.905Z,102491.50
2023-02-12T05:12:31.307Z,102496.88
2023-02-12T05:14:58.722Z,102492.16
2023-02-12T05:17:26.170Z,102495.66
2023-02-12T05:19:53.484Z,102484.16
2023-02-12T05:22:20.859Z,102483.56
2023-02-12T05:24:48.333Z,102478.44
2023-02-12T05:27:15.707Z,102482.34
2023-02-12T05:29:43.142Z,102486.25
2023-02-12T05:32:10.548Z,102476.13
2023-02-12T05:34:37.945Z,102480.66
2023-02-12T05:37:05.312Z,102481.03
2023-02-12T05:39:32.667Z,102479.84
2023-02-12T05:41:59.954Z,102469.47
2023-02-12T05:44:27.298Z,102471.97
2023-02-12T05:46:54.619Z,102477.31
2023-02-12T05:49:21.950Z,102474.66
2023-02-12T05:51:49.991Z,102491.09
2023-02-12T05:54:17.407Z,102492.75
2023-02-12T05:56:47.362Z,102494.06
2023-02-12T05:59:22.969Z,102499.44
2023-02-12T06:01:51.883Z,102502.50
2023-02-12T06:04:23.728Z,102499.06
2023-02-12T06:06:52.856Z,102495.56
2023-02-12T06:09:20.304Z,102503.38
2023-02-12T06:11:47.619Z,102510.84
2023-02-12T06:14:18.884Z,102518.06
2023-02-12T06:16:48.639Z,102529.41
2023-02-12T06:19:17.214Z,102529.41
2023-02-12T06:21:44.565Z,102533.53
2023-02-12T06:24:13.796Z,102537.22
2023-02-12T06:26:41.561Z,102536.81
2023-02-12T06:29:09.516Z,102546.91
2023-02-12T06:31:37.601Z,102542.31
2023-02-12T06:34:08.054Z,102550.63
2023-02-12T06:36:38.069Z,102548.31
2023-02-12T06:39:06.245Z,102564.84
2023-02-12T06:41:34.038Z,102564.22
2023-02-12T06:44:01.392Z,102562.75
2023-02-12T06:46:29.594Z,102560.13
2023-02-12T06:48:58.981Z,102567.09
2023-02-12T06:51:27.562Z,102571.31
2023-02-12T06:53:55.991Z,102574.84
2023-02-12T06:56:24.762Z,102578.34
2023-02-12T06:58:55.097Z,102564.44
2023-02-12T07:01:25.397Z,102560.50
2023-02-12T07:03:58.279Z,102554.03
2023-02-12T07:06:27.052Z,102557.09
2023-02-12T07:08:55.430Z,102554.53
2023-02-12T07:11:25.199Z,102550.34
2023-02-12T07:13:53.025Z,102558.97
2023-02-12T07:16:20.859Z,102567.00
2023-02-12T07:18:48.600Z,102574.09
2023-02-12T07:21:17.295Z,102583.00
2023-02-12T07:23:51.456Z,102585.06
2023-02-12T07:26:21.243Z,102578.56
2023-02-12T07:28:49.722Z,102589.16
2023-02-12T07:31:23.470Z,102591.34
2023-02-12T07:33:55.693Z,102598.84
2023-02-12T07:36:24.324Z,102599.19
2023-02-12T07:38:51.706Z,102591.25
2023-02-12T07:41:22.402Z,102603.94
2023-02-12T07:43:55.714Z,102610.00
2023-02-12T07:46:37.394Z,102604.69
2023-02-12T07:49:06.991Z,102603.41
2023-02-12T07:51:35.526Z,102608.41
2023-02-12T07:54:04.000Z,102603.53
2023-02-12T07:56:35.255Z,102607.16
2023-02-12T07:59:08.345Z,102613.59
2023-02-12T08:01:38.308Z,102614.28
2023-02-12T08:04:11.520Z,102614.88
2023-02-12T08:06:41.587Z,102613.69
2023-02-12T08:09:12.252Z,102608.25
2023-02-12T08:11:40.996Z,102610.69
2023-02-12T08:14:10.726Z,102602.19
2023-02-12T08:16:40.012Z,102605.06
2023-02-12T08:19:18.727Z,102616.72
2023-02-12T08:21:54.898Z,102626.69
2023-02-12T08:24:23.063Z,102629.38
2023-02-12T08:26:51.399Z,102636.59
2023-02-12T08:29:22.029Z,102630.19
2023-02-12T08:31:51.121Z,102633.81
2023-02-12T08:34:27.408Z,102636.84
2023-02-12T08:36:56.600Z,102642.53
2023-02-12T08:39:26.196Z,102647.00
2023-02-12T08:42:00.004Z,102647.34
2023-02-12T08:44:27.697Z,102648.38
2023-02-12T08:46:58.246Z,102638.25
2023-02-12T08:49:29.624Z,102639.75
2023-02-12T08:51:59.148Z,102628.53
2023-02-12T08:54:28.707Z,102624.25
2023-02-12T08:56:58.151Z,102625.69
2023-02-12T08:59:25.809Z,102620.38
2023-02-12T09:01:54.447Z,102627.06
2023-02-12T09:04:25.445Z,102619.81
2023-02-12T09:06:53.148Z,102613.88
2023-02-12T09:09:21.436Z,102620.00
2023-02-12T09:11:49.698Z,102618.19
2023-02-12T09:14:18.973Z,102615.78
2023-02-12T09:16:46.379Z,102614.38
2023-02-12T09:19:14.611Z,102626.03
2023-02-12T09:21:42.220Z,102616.00
2023-02-12T09:24:09.917Z,102625.09
2023-02-12T09:26:39.214Z,102635.66
2023-02-12T09:29:06.677Z,102632.69
2023-02-12T09:31:34.205Z,102628.84
2023-02-12T09:34:05.234Z,102636.78
2023-02-12T09:36:33.635Z,102639.19
2023-02-12T09:39:01.155Z,102633.09
2023-02-12T09:41:46.998Z,102642.13
2023-02-12T09:44:32.431Z,102638.59
2023-02-12T09:47:03.671Z,102636.97
2023-02-12T09:50:13.634Z,102630.56
2023-02-12T09:52:41.698Z,102636.53
2023-02-12T09:55:15.529Z,102635.78
2023-02-12T09:57:44.310Z,102627.03
2023-02-12T10:00:15.825Z,102628.16
2023-02-12T10:02:43.141Z,102640.44
2023-02-12T10:05:20.263Z,102651.25
2023-02-12T10:08:08.456Z,102646.44
2023-02-12T10:10:48.094Z,102650.22
2023-02-12T10:13:15.576Z,102645.13
2023-02-12T10:15:53.834Z,102651.28
2023-02-12T10:18:42.558Z,102669.44
2023-02-12T10:21:15.920Z,102674.22
2023-02-12T10:24:08.555Z,102667.94
2023-02-12T10:26:41.243Z,102654.03
2023-02-12T10:29:14.780Z,102666.81
2023-02-12T10:31:47.199Z,102670.59
2023-02-12T10:34:32.527Z,102657.44
2023-02-12T10:37:21.321Z,102658.09
2023-02-12T10:39:52.252Z,102640.41
2023-02-12T10:42:44.867Z,102641.13
2023-02-12T10:45:18.268Z,102649.25
2023-02-12T10:47:50.503Z,102644.28
2023-02-12T10:50:53.030Z,102645.78
2023-02-12T10:53:29.657Z,102642.13
2023-02-12T10:56:27.400Z,102644.28
2023-02-12T10:58:59.347Z,102645.16
2023-02-12T11:01:39.421Z,102642.22
2023-02-12T11:04:21.687Z,102638.97
2023-02-12T11:07:00.846Z,102646.88
2023-02-12T11:09:45.638Z,102647.69
2023-02-12T11:12:36.788Z,102651.25
2023-02-12T11:15:25.579Z,102658.34
2023-02-12T11:17:59.085Z,102652.16
2023-02-12T11:20:42.126Z,102642.81
2023-02-12T11:23:33.952Z,102642.88
2023-02-12T11:26:05.913Z,102639.78
2023-02-12T11:28:35.089Z,102644.16
2023-02-12T11:31:20.188Z,102654.31
2023-02-12T11:33:58.797Z,102654.34
2023-02-12T11:36:27.607Z,102649.69
2023-02-12T11:38:58.337Z,102652.28
2023-02-12T11:41:37.994Z,102655.47
2023-02-12T11:44:28.730Z,102663.44
2023-02-12T11:47:02.199Z,102671.31
2023-02-12T11:49:39.005Z,102659.59
2023-02-12T11:52:07.638Z,102668.88
2023-02-12T11:54:41.912Z,102665.66
2023-02-12T11:57:43.775Z,102665.16
2023-02-12T12:00:19.731Z,102666.44
2023-02-12T12:03:28.414Z,102661.69
2023-02-12T12:06:28.288Z,102656.78
2023-02-12T12:09:01.857Z,102650.59
2023-02-12T12:11:37.154Z,102650.75
2023-02-12T12:15:04.120Z,102653.78
2023-02-12T12:18:38.665Z,102649.78
2023-02-12T12:21:29.437Z,102642.31
2023-02-12T12:24:04.237Z,102647.81
2023-02-12T12:26:34.559Z,102640.94
2023-02-12T12:29:23.225Z,102635.63
2023-02-12T12:32:01.537Z,102627.84
2023-02-12T12:34:32.446Z,102630.97
2023-02-12T12:37:28.888Z,102624.84
2023-02-12T12:39:59.103Z,102633.56
2023-02-12T12:42:47.888Z,102619.31
2023-02-12T12:45:39.374Z,102626.22
2023-02-12T12:48:09.504Z,102629.78
2023-02-12T12:51:01.545Z,102627.69
2023-02-12T12:53:50.506Z,102616.06
2023-02-12T12:56:20.482Z,102626.63
2023-02-12T12:59:18.739Z,102630.84
2023-02-12T13:02:10.195Z,102623.38
2023-02-12T13:04:52.695Z,102631.78
2023-02-12T13:07:32.713Z,102630.38
2023-02-12T13:10:10.891Z,102630.34
2023-02-12T13:12:51.137Z,102623.28
2023-02-12T13:15:46.183Z,102625.50
2023-02-12T13:18:28.428Z,102627.44
2023-02-12T13:20:58.771Z,102621.59
2023-02-12T13:23:50.605Z,102619.31
2023-02-12T13:26:36.754Z,102614.78
2023-02-12T13:29:18.611Z,102617.81
2023-02-12T13:32:01.616Z,102618.19
2023-02-12T13:34:31.467Z,102613.09
2023-02-12T13:37:03.048Z,102612.59
2023-02-12T13:39:39.540Z,102612.84
2023-02-12T13:42:12.564Z,102617.31
2023-02-12T13:45:01.876Z,102616.06
2023-02-12T13:47:41.528Z,102622.34
2023-02-12T13:50:32.813Z,102606.66
2023-02-12T13:53:21.247Z,102611.75
2023-02-12T13:56:02.087Z,102617.53
2023-02-12T13:58:35.269Z,102613.97
2023-02-12T14:01:08.554Z,102619.72
2023-02-12T14:03:38.129Z,102625.66
2023-02-12T14:06:10.269Z,102629.13
2023-02-12T14:08:40.685Z,102619.72
2023-02-12T14:11:12.232Z,102630.31
2023-02-12T14:14:00.205Z,102636.97
2023-02-12T14:16:30.223Z,102632.03
2023-02-12T14:19:35.122Z,102630.47
2023-02-12T14:22:28.714Z,102630.78
2023-02-12T14:24:57.837Z,102627.41
2023-02-12T14:27:48.722Z,102636.16
2023-02-12T14:30:25.838Z,102639.78
2023-02-12T14:32:58.109Z,102635.00
2023-02-12T14:35:40.676Z,102639.16
2023-02-12T14:38:20.039Z,102636.28
2023-02-12T14:40:52.580Z,102644.19
2023-02-12T14:43:55.700Z,102645.59
2023-02-12T14:46:23.074Z,102647.66
2023-02-12T14:48:56.398Z,102648.56
2023-02-12T14:51:36.949Z,102658.38
2023-02-12T14:54:13.694Z,102662.75
2023-02-12T14:56:47.621Z,102662.94
2023-02-12T14:59:25.560Z,102657.16
2023-02-12T15:01:54.612Z,102671.19
2023-02-12T15:04:27.662Z,102670.50
2023-02-12T15:07:08.356Z,102667.97
2023-02-12T15:09:52.663Z,102665.53
2023-02-12T15:12:26.638Z,102671.34
2023-02-12T15:15:11.212Z,102669.94
2023-02-12T15:17:41.891Z,102662.66
2023-02-12T15:20:23.789Z,102658.25
2023-02-12T15:22:51.224Z,102666.00
2023-02-12T15:25:27.244Z,102680.13
2023-02-12T15:28:00.817Z,102670.66
2023-02-12T15:30:32.418Z,102666.59
2023-02-12T15:33:03.640Z,102676.31
2023-02-12T15:35:36.830Z,102676.44
2023-02-12T15:38:08.078Z,102675.16
2023-02-12T15:40:35.528Z,102680.06
2023-02-12T15:43:16.773Z,102682.53
2023-02-12T15:45:51.570Z,102683.69
2023-02-12T15:48:23.767Z,102691.63
2023-02-12T15:51:18.045Z,102697.44
2023-02-12T15:53:48.896Z,102694.44
2023-02-12T15:56:22.921Z,102694.16
2023-02-12T15:58:53.312Z,102691.16
2023-02-12T16:01:24.033Z,102699.41
2023-02-12T16:03:56.807Z,102696.63
2023-02-12T16:06:27.012Z,102692.09
2023-02-12T16:09:06.780Z,102697.63
2023-02-12T16:11:35.524Z,102702.63
2023-02-12T16:14:07.633Z,102701.88
2023-02-12T16:16:45.296Z,102711.16
2023-02-12T16:19:32.932Z,102717.50
2023-02-12T16:22:09.390Z,102712.59
2023-02-12T16:24:49.489Z,102713.47
2023-02-12T16:27:20.476Z,102710.22
2023-02-12T16:29:53.964Z,102721.16
2023-02-12T16:32:27.389Z,102722.53
2023-02-12T16:35:04.876Z,102727.47
2023-02-12T16:37:38.410Z,102733.50
2023-02-12T16:40:12.064Z,102729.16
2023-02-12T16:42:55.400Z,102730.78
2023-02-12T16:45:28.802Z,102741.41
2023-02-12T16:48:09.756Z,102742.81
2023-02-12T16:50:45.022Z,102748.25
2023-02-12T16:53:33.550Z,102762.13
2023-02-12T16:56:02.695Z,102755.06
2023-02-12T16:58:30.016Z,102764.31
2023-02-12T17:00:59.417Z,102763.81
2023-02-12T17:03:29.617Z,102766.78
2023-02-12T17:05:57.383Z,102770.31
2023-02-12T17:08:25.072Z,102779.56
2023-02-12T17:10:55.445Z,102781.47
2023-02-12T17:13:22.804Z,102780.38
2023-02-12T17:15:56.307Z,102786.09
2023-02-12T17:18:24.621Z,102786.63
2023-02-12T17:20:56.859Z,102792.34
2023-02-12T17:23:25.014Z,102784.69
2023-02-12T17:25:54.001Z,102792.06
2023-02-12T17:28:22.913Z,102799.13
2023-02-12T17:30:50.518Z,102800.97
2023-02-12T17:33:18.930Z,102800.50
2023-02-12T17:35:46.557Z,102809.44
2023-02-12T17:38:13.957Z,102803.13
2023-02-12T17:40:41.284Z,102810.25
2023-02-12T17:43:08.712Z,102814.63
2023-02-12T17:45:40.438Z,102816.75
2023-02-12T17:48:08.012Z,102815.31
2023-02-12T17:50:35.423Z,102819.38
2023-02-12T17:53:02.810Z,102827.22
2023-02-12T17:55:31.402Z,102831.00
2023-02-12T17:57:58.872Z,102835.47
2023-02-12T18:00:26.305Z,102831.94
2023-02-12T18:02:54.693Z,102833.22
2023-02-12T18:05:22.089Z,102828.78
2023-02-12T18:07:49.500Z,102830.88
2023-02-12T18:10:16.959Z,102832.25
2023-02-12T18:12:44.288Z,102837.94
2023-02-12T18:15:11.868Z,102831.69
2023-02-12T18:17:42.104Z,102836.78
2023-02-12T18:20:11.632Z,102843.75
2023-02-12T18:22:38.972Z,102839.56
2023-02-12T18:25:06.832Z,102833.22
2023-02-12T18:27:34.738Z,102846.28
2023-02-12T18:30:02.613Z,102849.56
2023-02-12T18:32:30.085Z,102842.81
2023-02-12T18:34:57.384Z,102841.84
2023-02-12T18:37:24.687Z,102846.66
2023-02-12T18:39:52.114Z,102840.97
2023-02-12T18:42:19.470Z,102850.28
2023-02-12T18:44:46.868Z,102857.91
2023-02-12T18:47:14.209Z,102859.03
2023-02-12T18:49:41.549Z,102859.03
2023-02-12T18:52:09.118Z,102859.03
2023-02-12T18:54:36.504Z,102865.00
2023-02-12T18:57:03.962Z,102864.91
2023-02-12T18:59:31.576Z,102869.53
2023-02-12T19:01:58.958Z,102868.41
2023-02-12T19:04:27.842Z,102869.50
2023-02-12T19:06:58.053Z,102879.34
2023-02-12T19:09:26.956Z,102876.88
2023-02-12T19:11:56.953Z,102874.94
2023-02-12T19:14:26.667Z,102878.63
2023-02-12T19:16:53.972Z,102878.38
2023-02-12T19:19:24.765Z,102882.19
2023-02-12T19:21:52.404Z,102884.63
2023-02-12T19:24:20.222Z,102884.03
2023-02-12T19:26:51.762Z,102883.41
2023-02-12T19:29:19.117Z,102890.38
2023-02-12T19:31:47.188Z,102885.66
2023-02-12T19:34:19.620Z,102886.44
2023-02-12T19:36:48.607Z,102895.19
2023-02-12T19:39:22.042Z,102891.03
2023-02-12T19:41:49.989Z,102896.56
2023-02-12T19:44:26.117Z,102895.69
2023-02-12T19:46:53.600Z,102902.69
2023-02-12T19:49:24.137Z,102906.94
2023-02-12T19:51:51.869Z,102908.38
2023-02-12T19:54:21.536Z,102912.66
2023-02-12T19:56:49.839Z,102913.97
2023-02-12T19:59:20.541Z,102915.63
2023-02-12T20:01:48.634Z,102932.06
2023-02-12T20:04:19.710Z,102926.97
2023-02-12T20:06:49.086Z,102936.50
2023-02-12T20:09:19.108Z,102933.22
2023-02-12T20:11:46.558Z,102937.75
2023-02-12T20:14:14.604Z,102931.34
2023-02-12T20:16:44.800Z,102933.13
2023-02-12T20:19:19.704Z,102936.88
2023-02-12T20:21:53.225Z,102940.53
2023-02-12T20:24:32.512Z,102945.50
2023-02-12T20:27:03.036Z,102944.34
2023-02-12T20:29:30.616Z,102950.94
2023-02-12T20:31:58.146Z,102942.72
2023-02-12T20:34:25.737Z,102940.75
2023-02-12T20:36:53.986Z,102938.78
2023-02-12T20:39:22.325Z,102947.47
2023-02-12T20:41:50.278Z,102952.66
2023-02-12T20:44:21.090Z,102953.50
2023-02-12T20:46:54.388Z,102954.59
2023-02-12T20:49:25.291Z,102968.75
2023-02-12T20:51:53.104Z,102952.97
2023-02-12T20:54:21.054Z,102961.09
2023-02-12T20:56:50.575Z,102963.81
2023-02-12T20:59:21.816Z,102956.50
2023-02-12T21:01:50.410Z,102968.09
2023-02-12T21:04:19.193Z,102962.09
2023-02-12T21:06:48.345Z,102967.69
2023-02-12T21:09:16.721Z,102971.31
2023-02-12T21:11:45.903Z,102966.63
2023-02-12T21:14:23.682Z,102973.13
2023-02-12T21:16:55.879Z,102975.22
2023-02-12T21:19:24.933Z,102973.25
2023-02-12T21:21:55.747Z,102974.25
2023-02-12T21:24:25.314Z,102980.81
2023-02-12T21:26:56.394Z,102973.34
2023-02-12T21:29:26.044Z,102976.84
2023-02-12T21:31:55.627Z,102985.06
2023-02-12T21:34:23.781Z,102982.91
2023-02-12T21:36:53.974Z,102981.16
2023-02-12T21:39:24.879Z,102990.47
2023-02-12T21:41:58.170Z,102993.84
2023-02-12T21:44:26.163Z,102989.78
2023-02-12T21:46:54.319Z,103001.78
2023-02-12T21:49:25.187Z,102993.41
2023-02-12T21:51:55.128Z,102997.53
2023-02-12T21:54:23.200Z,102996.19
2023-02-12T21:56:51.273Z,103001.53
2023-02-12T21:59:19.049Z,103000.97
2023-02-12T22:01:49.425Z,102997.19
2023-02-12T22:04:18.165Z,103004.97
2023-02-12T22:06:49.450Z,103005.41
2023-02-12T22:09:19.238Z,103005.88
2023-02-12T22:11:46.964Z,103007.63
2023-02-12T22:14:16.700Z,103010.00
2023-02-12T22:16:44.671Z,103008.44
2023-02-12T22:19:12.287Z,103014.88
2023-02-12T22:21:41.094Z,103025.03
2023-02-12T22:24:11.519Z,103017.41
2023-02-12T22:26:38.877Z,103016.06
2023-02-12T22:29:08.748Z,103019.19
2023-02-12T22:31:38.766Z,103024.97
2023-02-12T22:34:10.330Z,103017.44
2023-02-12T22:36:38.563Z,103016.97
2023-02-12T22:39:06.533Z,103019.66
2023-02-12T22:41:34.417Z,103026.41
2023-02-12T22:44:05.036Z,103032.53
2023-02-12T22:46:33.322Z,103037.59
2023-02-12T22:49:00.910Z,103039.00
2023-02-12T22:51:31.124Z,103038.53
2023-02-12T22:53:58.883Z,103039.94
2023-02-12T22:56:26.610Z,103040.69
2023-02-12T22:58:58.397Z,103049.06
2023-02-12T23:01:27.012Z,103038.59
2023-02-12T23:03:55.300Z,103046.50
2023-02-12T23:06:25.929Z,103056.16
2023-02-12T23:08:56.743Z,103048.28
2023-02-12T23:11:24.790Z,103048.28
2023-02-12T23:13:52.654Z,103054.81
2023-02-12T23:16:23.291Z,103053.19
2023-02-12T23:18:57.936Z,103049.19
2023-02-12T23:21:26.579Z,103063.91
2023-02-12T23:23:54.368Z,103069.44
2023-02-12T23:26:22.384Z,103068.59
2023-02-12T23:28:49.688Z,103066.63
2023-02-12T23:31:17.342Z,103065.56
2023-02-12T23:33:45.438Z,103064.97
2023-02-12T23:36:12.897Z,103064.97
2023-02-12T23:38:40.189Z,103069.56
2023-02-12T23:41:07.656Z,103074.88
2023-02-12T23:43:34.944Z,103066.50
2023-02-12T23:46:02.680Z,103070.75
2023-02-12T23:48:29.998Z,103070.63
2023-02-12T23:50:57.602Z,103054.41
2023-02-12T23:53:27.025Z,103062.19
2023-02-12T23:55:54.369Z,103058.78
2023-02-12T23:58:21.649Z,103070.19
